BOM weather

Chhatrapati Shivaji International Airport
Mumbai, Maharashtra, India

Public forecast

Using degrees Celsius for public forecast. Weather courtesy of forecast.io.

METAR (pilot weather report)

Retrieved 2019/05/20 03:30 UTC (23 minutes ago):

VABB 200330Z 34006KT 3500 HZ FEW020 SCT025 31/25 Q1010 NOSIG

TAF (pilot weather forecast)

Forecast is more than 12 hours old.

Retrieved 2019/05/19 00:00 UTC (1 day ago):

TAF VABB 192300Z 2000/2106 00000KT 3000 HZ FEW020 BECMG 2003/2005 32006KT 4000 HZ BECMG 2007/2009 31007G17KT 6000 BECMG 2012/2014 30006KT 5000 HZ BECMG 2018/2020 02004KT 4000 HZ BECMG 2100/2102 00000KT 3000 HZ BECMG 2103/2105 32006KT 4000 HZ